Terminal Aerodrome Forecast
Issued by NWS

Home | Current Version | Previous Version | Text Only | Print | Product List | Glossary On
Versions: 1 2 3 4 5 6 7 8 9 10 11 12 13 14 15 16 17
205
FTUS43 KGRB 241120
TAFAUW
TAF
KAUW 241120Z 2412/2512 21010G16KT P6SM SCT250 WS017/25050KT
     FM241400 22010G18KT P6SM SCT250 WS020/24055KT
     FM241900 25009G17KT P6SM SCT035 BKN070
      TEMPO 2419/2423 -SHRA BKN040
     FM242300 30010G18KT P6SM BKN050
     FM250800 30009G19KT P6SM SCT019=

USA.gov is the U.S. government's official web portal to all federal, state and local government web resources and services.